EDDG/FMO METAR and TAF weather

Enter ICAO airport designator
Station Type Date Time Source
EDDG METAR 2021/09/23 17:50 UTC NOAA

EDDG 231750Z 29010KT 9999 -SHRA FEW016TCU BKN019 16/14 Q1015 NOSIG


Station Type Date Time Source
EDDG Decoded METAR 2021/09/23 17:50 UTC NOAA

Muenster / Osnabrueck, Germany (EDDG) 52-08N 007-42E 53M
Sep 23, 2021 - 01:50 PM EDT / 2021.09.23 1750 UTC
Wind: from the WNW (290 degrees) at 12 MPH (10 KT):0
Visibility: greater than 7 mile(s):0
Sky conditions: mostly cloudy
Weather: light rain showers; Towering cumulus clouds observed
Temperature: 60 F (16 C)
Dew Point: 57 F (14 C)
Relative Humidity: 87%
Pressure (altimeter): 29.97 in. Hg (1015 hPa)
ob: EDDG 231750Z 29010KT 9999 -SHRA FEW016TCU BKN019 16/14 Q1015 NOSIG
cycle: 18

Station Type Date Time Source
EDDG TAF 2021/09/23 18:27 UTC NOAA

TAF EDDG 231700Z 2318/2418 26010KT 9999 BKN020
BECMG 2321/2324 25004KT
TEMPO 2403/2410 BKN012
BECMG 2408/2411 23010KT

Example: see airport list